KABQ/ABQ METAR and TAF weather

Enter ICAO airport designator
Station Type Date Time Source
KABQ METAR 2019/05/19 20:52 UTC NOAA

KABQ 192052Z 18021G26KT 10SM SCT150 BKN170 OVC250 19/M08 A2990 RMK AO2 PK WND 17026/2047 SLP072 T01941078 58022


Station Type Date Time Source
KABQ Decoded METAR 2019/05/19 20:52 UTC NOAA

ALBUQUERQUE INTERNATIONAL AIRPORT, NM, United States (KABQ) 35-02N 106-36W 1618M
May 19, 2019 - 04:52 PM EDT / 2019.05.19 2052 UTC
Wind: from the S (180 degrees) at 24 MPH (21 KT) gusting to 30 MPH (26 KT):0
Visibility: 10 mile(s):0
Sky conditions: overcast
Temperature: 66.9 F (19.4 C)
Dew Point: 18.0 F (-7.8 C)
Relative Humidity: 15%
Pressure (altimeter): 29.9 in. Hg (1012 hPa)
Pressure tendency: 0.06 inches (2.2 hPa) lower than three hours ago
ob: KABQ 192052Z 18021G26KT 10SM SCT150 BKN170 OVC250 19/M08 A2990 RMK AO2 PK WND 17026/2047 SLP072 T01941078 58022
cycle: 21

Station Type Date Time Source
KABQ TAF 2019/05/19 18:28 UTC NOAA

TAF KABQ 191726Z 1918/2018 18010G18KT P6SM BKN150
FM192000 20020G28KT P6SM FEW080 BKN150
FM200300 21012KT P6SM BKN120
FM200600 18007KT P6SM BKN100
FM201500 20015G22KT P6SM BKN080

Example: see airport list